createdAt,value
2019-02-28T00:00:46.364Z,14.03
2019-02-28T00:01:31.484Z,14.77
2019-02-28T00:02:10.814Z,14.23
2019-02-28T00:02:46.207Z,14.17
2019-02-28T00:03:21.872Z,14.70
2019-02-28T00:03:58.311Z,14.80
2019-02-28T00:04:34.444Z,14.40
2019-02-28T00:05:09.822Z,13.77
2019-02-28T00:05:45.234Z,14.50
2019-02-28T00:06:21.029Z,15.53
2019-02-28T00:06:56.409Z,13.97
2019-02-28T00:07:31.795Z,13.80
2019-02-28T00:08:07.286Z,14.37
2019-02-28T00:08:42.942Z,13.23
2019-02-28T00:09:18.679Z,14.70
2019-02-28T00:09:57.340Z,13.37
2019-02-28T00:10:31.695Z,13.30
2019-02-28T00:11:07.357Z,13.20
2019-02-28T00:11:42.760Z,13.80
2019-02-28T00:12:18.451Z,13.17
2019-02-28T00:12:53.843Z,13.87
2019-02-28T00:13:29.237Z,13.43
2019-02-28T00:14:04.641Z,13.57
2019-02-28T00:14:40.107Z,13.13
2019-02-28T00:15:15.536Z,13.90
2019-02-28T00:15:50.959Z,13.43
2019-02-28T00:16:26.359Z,13.30
2019-02-28T00:17:02.047Z,13.10
2019-02-28T00:17:42.760Z,12.90
2019-02-28T00:18:15.542Z,13.20
2019-02-28T00:18:52.302Z,13.60
2019-02-28T00:19:27.706Z,12.93
2019-02-28T00:20:06.392Z,12.57
2019-02-28T00:20:41.782Z,12.60
2019-02-28T00:21:17.315Z,14.17
2019-02-28T00:21:52.994Z,13.43
2019-02-28T00:22:28.408Z,12.73
2019-02-28T00:23:04.161Z,13.63
2019-02-28T00:23:39.661Z,12.93
2019-02-28T00:24:15.063Z,14.30
2019-02-28T00:24:50.486Z,13.07
2019-02-28T00:25:25.908Z,12.80
2019-02-28T00:26:01.887Z,13.03
2019-02-28T00:26:37.291Z,14.53
2019-02-28T00:27:12.970Z,13.17
2019-02-28T00:27:48.585Z,12.63
2019-02-28T00:28:25.935Z,13.60
2019-02-28T00:29:01.466Z,13.03
2019-02-28T00:29:36.865Z,12.63
2019-02-28T00:30:12.683Z,12.63
2019-02-28T00:30:48.071Z,12.27
2019-02-28T00:31:23.744Z,12.67
2019-02-28T00:31:59.138Z,13.10
2019-02-28T00:32:34.537Z,11.93
2019-02-28T00:33:09.927Z,13.13
2019-02-28T00:33:45.817Z,12.77
2019-02-28T00:34:21.248Z,13.13
2019-02-28T00:34:57.249Z,12.30
2019-02-28T00:35:32.902Z,12.70
2019-02-28T00:36:08.628Z,12.53
2019-02-28T00:36:44.034Z,12.63
2019-02-28T00:37:19.459Z,12.70
2019-02-28T00:37:56.674Z,12.40
2019-02-28T00:38:32.245Z,12.87
2019-02-28T00:39:07.747Z,13.80
2019-02-28T00:39:43.395Z,12.37
2019-02-28T00:40:19.104Z,12.33
2019-02-28T00:40:54.532Z,12.23
2019-02-28T00:41:29.945Z,12.67
2019-02-28T00:42:05.697Z,12.10
2019-02-28T00:42:41.355Z,12.10
2019-02-28T00:43:16.766Z,13.40
2019-02-28T00:43:56.857Z,12.50
2019-02-28T00:44:31.442Z,12.73
2019-02-28T00:45:07.369Z,12.23
2019-02-28T00:45:42.781Z,12.73
2019-02-28T00:46:18.263Z,12.83
2019-02-28T00:46:53.920Z,12.30
2019-02-28T00:47:29.596Z,12.07
2019-02-28T00:48:05.004Z,12.30
2019-02-28T00:48:40.437Z,12.57
2019-02-28T00:49:15.946Z,13.23
2019-02-28T00:49:51.380Z,12.70
2019-02-28T00:50:27.822Z,12.40
2019-02-28T00:51:03.930Z,13.17
2019-02-28T00:51:39.372Z,11.57
2019-02-28T00:52:15.025Z,12.27
2019-02-28T00:52:50.427Z,12.97
2019-02-28T00:53:26.085Z,12.93
2019-02-28T00:54:01.543Z,12.10
2019-02-28T00:54:42.981Z,12.17
2019-02-28T00:55:15.507Z,12.73
2019-02-28T00:55:51.279Z,12.93
2019-02-28T00:56:26.714Z,11.63
2019-02-28T00:57:02.437Z,12.80
2019-02-28T00:57:37.845Z,12.27
2019-02-28T00:58:13.241Z,13.00
2019-02-28T00:58:48.731Z,12.70
2019-02-28T00:59:24.110Z,12.70
2019-02-28T01:00:04.870Z,12.13
2019-02-28T01:00:38.180Z,12.10
2019-02-28T01:01:13.587Z,12.37
2019-02-28T01:01:49.288Z,11.20
2019-02-28T01:02:24.835Z,12.43
2019-02-28T01:03:00.541Z,11.90
2019-02-28T01:03:36.253Z,11.90
2019-02-28T01:04:11.904Z,12.60
2019-02-28T01:04:47.328Z,12.47
2019-02-28T01:05:22.809Z,11.83
2019-02-28T01:05:58.560Z,12.17
2019-02-28T01:06:35.426Z,11.80
2019-02-28T01:07:13.266Z,12.30
2019-02-28T01:07:48.949Z,12.50
2019-02-28T01:08:24.588Z,12.27
2019-02-28T01:09:00.121Z,11.57
2019-02-28T01:09:35.647Z,12.33
2019-02-28T01:10:11.825Z,11.73
2019-02-28T01:10:47.483Z,11.90
2019-02-28T01:11:23.144Z,13.03
2019-02-28T01:11:59.212Z,11.53
2019-02-28T01:12:34.848Z,11.50
2019-02-28T01:13:10.382Z,12.27
2019-02-28T01:13:46.040Z,12.57
2019-02-28T01:14:21.847Z,11.90
2019-02-28T01:14:57.273Z,11.80
2019-02-28T01:15:33.030Z,12.80
2019-02-28T01:16:08.405Z,12.03
2019-02-28T01:16:43.882Z,12.30
2019-02-28T01:17:19.545Z,12.73
2019-02-28T01:17:57.218Z,12.20
2019-02-28T01:18:34.462Z,12.13
2019-02-28T01:19:10.170Z,11.80
2019-02-28T01:19:45.688Z,12.70
2019-02-28T01:20:21.196Z,12.57
2019-02-28T01:20:56.605Z,12.40
2019-02-28T01:21:32.051Z,12.33
2019-02-28T01:22:07.443Z,11.47
2019-02-28T01:22:42.839Z,12.20
2019-02-28T01:23:18.533Z,12.37
2019-02-28T01:23:53.907Z,12.40
2019-02-28T01:24:34.521Z,11.97
2019-02-28T01:25:07.365Z,11.90
2019-02-28T01:25:42.781Z,12.60
2019-02-28T01:26:18.448Z,13.20
2019-02-28T01:26:53.847Z,12.07
2019-02-28T01:27:29.351Z,12.47
2019-02-28T01:28:04.754Z,12.47
2019-02-28T01:28:40.178Z,12.80
2019-02-28T01:29:15.912Z,12.00
2019-02-28T01:29:51.305Z,12.77
2019-02-28T01:30:27.131Z,12.17
2019-02-28T01:31:02.545Z,11.67
2019-02-28T01:31:38.191Z,13.17
2019-02-28T01:32:15.651Z,13.20
2019-02-28T01:32:51.111Z,12.73
2019-02-28T01:33:26.524Z,12.07
2019-02-28T01:34:02.286Z,12.80
2019-02-28T01:34:37.684Z,13.60
2019-02-28T01:35:13.090Z,12.37
2019-02-28T01:35:48.508Z,12.43
2019-02-28T01:36:24.172Z,12.67
2019-02-28T01:36:59.861Z,12.93
2019-02-28T01:37:35.262Z,12.27
2019-02-28T01:38:10.654Z,12.80
2019-02-28T01:38:46.092Z,13.37
2019-02-28T01:39:21.749Z,12.33
2019-02-28T01:39:57.146Z,12.90
2019-02-28T01:40:35.128Z,14.50
2019-02-28T01:41:11.175Z,14.17
2019-02-28T01:41:47.152Z,13.23
2019-02-28T01:42:22.544Z,12.90
2019-02-28T01:42:57.958Z,13.83
2019-02-28T01:43:33.354Z,12.77
2019-02-28T01:44:08.755Z,12.37
2019-02-28T01:44:44.444Z,14.70
2019-02-28T01:45:19.856Z,13.27
2019-02-28T01:45:55.598Z,14.00
2019-02-28T01:46:31.356Z,13.33
2019-02-28T01:47:06.763Z,13.57
2019-02-28T01:47:42.584Z,13.30
2019-02-28T01:48:18.069Z,13.87
2019-02-28T01:48:54.538Z,13.47
2019-02-28T01:49:30.529Z,13.87
2019-02-28T01:50:06.365Z,13.50
2019-02-28T01:50:42.028Z,13.17
2019-02-28T01:51:17.425Z,13.70
2019-02-28T01:51:53.507Z,13.73
2019-02-28T01:52:28.969Z,14.80
2019-02-28T01:53:04.363Z,13.50
2019-02-28T01:53:39.787Z,13.13
2019-02-28T01:54:15.459Z,13.87
2019-02-28T01:54:50.859Z,14.00
2019-02-28T01:55:29.382Z,14.07
2019-02-28T01:56:03.453Z,14.17
2019-02-28T01:56:39.121Z,14.23
2019-02-28T01:57:14.840Z,14.17
2019-02-28T01:57:50.251Z,13.93
2019-02-28T01:58:26.236Z,13.93
2019-02-28T01:59:01.935Z,13.67
2019-02-28T01:59:37.341Z,14.43
2019-02-28T02:00:14.460Z,13.90
2019-02-28T02:00:49.880Z,13.77
2019-02-28T02:01:25.290Z,13.90
2019-02-28T02:02:05.703Z,13.97
2019-02-28T02:02:38.973Z,14.23
2019-02-28T02:03:14.471Z,14.80
2019-02-28T02:03:49.869Z,14.63
2019-02-28T02:04:25.583Z,13.90
2019-02-28T02:05:01.033Z,14.63
2019-02-28T02:05:36.682Z,13.90
2019-02-28T02:06:12.133Z,14.43
2019-02-28T02:06:48.897Z,15.10
2019-02-28T02:07:24.555Z,14.70
2019-02-28T02:08:00.046Z,14.73
2019-02-28T02:08:37.814Z,15.03
2019-02-28T02:09:12.913Z,14.00
2019-02-28T02:09:48.406Z,15.07
2019-02-28T02:10:24.086Z,15.30
2019-02-28T02:10:59.523Z,14.87
2019-02-28T02:11:34.911Z,15.00
2019-02-28T02:12:10.619Z,15.50
2019-02-28T02:12:46.264Z,15.60
2019-02-28T02:13:21.671Z,14.67
2019-02-28T02:13:57.426Z,15.30
2019-02-28T02:14:32.847Z,14.53
2019-02-28T02:15:08.870Z,15.03
2019-02-28T02:15:44.283Z,15.13
2019-02-28T02:16:19.720Z,15.60
2019-02-28T02:16:55.125Z,14.40
2019-02-28T02:17:32.229Z,15.67
2019-02-28T02:18:09.324Z,16.43
2019-02-28T02:18:44.849Z,15.27
2019-02-28T02:19:20.255Z,16.37
2019-02-28T02:19:55.860Z,15.67
2019-02-28T02:20:31.465Z,16.33
2019-02-28T02:21:06.940Z,17.23
2019-02-28T02:21:42.332Z,14.83
2019-02-28T02:22:17.734Z,16.73
2019-02-28T02:22:53.915Z,16.80
2019-02-28T02:23:29.590Z,16.67
2019-02-28T02:24:05.098Z,16.13
2019-02-28T02:24:40.494Z,15.77
2019-02-28T02:25:15.985Z,15.60
2019-02-28T02:25:51.378Z,16.00
2019-02-28T02:26:26.815Z,15.43
2019-02-28T02:27:02.482Z,16.67
2019-02-28T02:27:38.174Z,16.57
2019-02-28T02:28:13.841Z,16.57
2019-02-28T02:28:49.248Z,16.57
2019-02-28T02:29:24.638Z,15.87
2019-02-28T02:30:00.163Z,16.90
2019-02-28T02:30:35.988Z,15.57
2019-02-28T02:31:11.398Z,16.63
2019-02-28T02:31:46.819Z,16.97
2019-02-28T02:32:22.176Z,15.97
2019-02-28T02:32:58.168Z,16.77
2019-02-28T02:33:33.959Z,15.67
2019-02-28T02:34:10.465Z,15.70
2019-02-28T02:34:45.835Z,15.53
2019-02-28T02:35:22.839Z,16.20
2019-02-28T02:35:58.214Z,15.57
2019-02-28T02:36:35.667Z,16.27
2019-02-28T02:37:11.337Z,16.37
2019-02-28T02:37:46.745Z,17.13
2019-02-28T02:38:22.930Z,16.47
2019-02-28T02:38:58.336Z,16.20
2019-02-28T02:39:34.744Z,15.43
2019-02-28T02:40:10.593Z,16.53
2019-02-28T02:40:46.087Z,16.27
2019-02-28T02:41:21.774Z,16.23
2019-02-28T02:41:57.187Z,16.93
2019-02-28T02:42:32.764Z,16.83
2019-02-28T02:43:08.172Z,16.87
2019-02-28T02:43:43.609Z,16.97
2019-02-28T02:44:19.049Z,17.47
2019-02-28T02:44:54.454Z,16.07
2019-02-28T02:45:30.148Z,17.37
2019-02-28T02:46:05.593Z,17.07
2019-02-28T02:46:40.992Z,18.23
2019-02-28T02:47:16.394Z,16.07
2019-02-28T02:47:52.094Z,17.03
2019-02-28T02:48:27.764Z,16.80
2019-02-28T02:49:03.230Z,17.90
2019-02-28T02:49:38.930Z,16.37
2019-02-28T02:50:15.001Z,16.40
2019-02-28T02:50:51.143Z,16.43
2019-02-28T02:51:26.615Z,16.90
2019-02-28T02:52:03.676Z,17.20
2019-02-28T02:52:39.115Z,16.57
2019-02-28T02:53:14.538Z,17.23
2019-02-28T02:53:49.969Z,17.83
2019-02-28T02:54:25.657Z,16.97
2019-02-28T02:55:01.150Z,16.60
2019-02-28T02:55:36.817Z,17.07
2019-02-28T02:56:12.888Z,16.17
2019-02-28T02:56:48.602Z,17.80
2019-02-28T02:57:24.033Z,18.67
2019-02-28T02:58:00.133Z,16.70
2019-02-28T02:58:35.690Z,16.33
2019-02-28T02:59:11.437Z,16.73
2019-02-28T02:59:47.113Z,17.33
2019-02-28T03:00:22.566Z,16.13
2019-02-28T03:00:57.986Z,17.10
2019-02-28T03:01:33.511Z,16.60
2019-02-28T03:02:08.901Z,17.43
2019-02-28T03:02:44.354Z,17.33
2019-02-28T03:03:20.326Z,16.77
2019-02-28T03:03:55.959Z,16.43
2019-02-28T03:04:31.726Z,16.43
2019-02-28T03:05:07.735Z,16.03
2019-02-28T03:05:43.131Z,17.23
2019-02-28T03:06:18.552Z,17.63
2019-02-28T03:06:54.255Z,17.73
2019-02-28T03:07:29.670Z,17.10
2019-02-28T03:08:05.088Z,17.40
2019-02-28T03:08:40.496Z,16.87
2019-02-28T03:09:15.892Z,17.10
2019-02-28T03:09:51.278Z,18.17
2019-02-28T03:10:27.131Z,17.63
2019-02-28T03:11:02.735Z,17.23
2019-02-28T03:11:38.150Z,17.67
2019-02-28T03:12:13.542Z,16.70
2019-02-28T03:12:48.940Z,18.13
2019-02-28T03:13:24.365Z,17.13
2019-02-28T03:14:00.370Z,17.57
2019-02-28T03:14:36.358Z,18.87
2019-02-28T03:15:12.712Z,17.00
2019-02-28T03:15:48.129Z,16.70
2019-02-28T03:16:23.546Z,16.97
2019-02-28T03:16:59.917Z,16.87
2019-02-28T03:17:35.313Z,17.63
2019-02-28T03:18:10.721Z,17.83
2019-02-28T03:18:46.132Z,17.47
2019-02-28T03:19:21.579Z,17.20
2019-02-28T03:19:56.972Z,16.57
2019-02-28T03:20:32.380Z,17.43
2019-02-28T03:21:08.048Z,17.07
2019-02-28T03:21:51.301Z,16.30
2019-02-28T03:22:28.381Z,18.33
2019-02-28T03:23:02.133Z,17.40
2019-02-28T03:23:40.206Z,17.63
2019-02-28T03:24:15.140Z,17.27
2019-02-28T03:24:51.099Z,17.30
2019-02-28T03:25:28.302Z,16.30
2019-02-28T03:26:07.026Z,18.03
2019-02-28T03:26:43.244Z,17.27
2019-02-28T03:27:20.046Z,17.70
2019-02-28T03:27:56.804Z,17.13
2019-02-28T03:28:33.353Z,17.43
2019-02-28T03:29:09.112Z,17.83
2019-02-28T03:29:44.888Z,18.03
2019-02-28T03:30:27.800Z,16.63
2019-02-28T03:30:57.526Z,17.57
2019-02-28T03:31:33.227Z,16.80
2019-02-28T03:32:08.900Z,16.90
2019-02-28T03:32:45.341Z,16.93
2019-02-28T03:33:27.371Z,17.33
2019-02-28T03:34:10.440Z,17.00
2019-02-28T03:34:35.196Z,16.77
2019-02-28T03:35:10.717Z,16.67
2019-02-28T03:35:46.140Z,17.67
2019-02-28T03:36:21.559Z,16.67
2019-02-28T03:36:57.688Z,17.33
2019-02-28T03:37:34.623Z,17.17
2019-02-28T03:38:12.450Z,15.63
2019-02-28T03:38:49.587Z,16.67
2019-02-28T03:39:25.796Z,17.30
2019-02-28T03:40:04.403Z,17.03
2019-02-28T03:40:40.220Z,17.17
2019-02-28T03:41:17.753Z,16.83
2019-02-28T03:41:53.130Z,17.37
2019-02-28T03:42:30.113Z,16.97
2019-02-28T03:43:06.996Z,17.13
2019-02-28T03:43:44.068Z,16.00
2019-02-28T03:44:21.636Z,16.60
2019-02-28T03:44:58.196Z,16.70
2019-02-28T03:45:35.252Z,17.33
2019-02-28T03:46:11.626Z,17.13
2019-02-28T03:46:47.945Z,17.33
2019-02-28T03:47:24.199Z,17.43
2019-02-28T03:48:00.010Z,17.20
2019-02-28T03:48:36.292Z,17.30
2019-02-28T03:49:12.631Z,16.93
2019-02-28T03:49:49.864Z,15.30
2019-02-28T03:50:26.482Z,16.37
2019-02-28T03:51:02.466Z,15.60
2019-02-28T03:51:38.310Z,16.90
2019-02-28T03:52:13.707Z,15.93
2019-02-28T03:52:49.379Z,17.10
2019-02-28T03:53:24.780Z,17.47
2019-02-28T03:54:00.197Z,16.27
2019-02-28T03:54:35.899Z,16.83
2019-02-28T03:55:11.719Z,17.07
2019-02-28T03:55:47.107Z,17.90
2019-02-28T03:56:22.510Z,16.87
2019-02-28T03:56:58.183Z,16.33
2019-02-28T03:57:34.771Z,17.13
2019-02-28T03:58:10.161Z,16.77
2019-02-28T03:58:45.860Z,17.37
2019-02-28T03:59:21.357Z,17.50
2019-02-28T03:59:57.091Z,17.07
2019-02-28T04:00:34.080Z,17.00
2019-02-28T04:01:10.332Z,16.57
2019-02-28T04:01:46.560Z,16.60
2019-02-28T04:02:22.529Z,16.37
2019-02-28T04:02:59.095Z,17.10
2019-02-28T04:03:34.840Z,16.90
2019-02-28T04:04:12.231Z,16.60
2019-02-28T04:04:50.156Z,16.53
2019-02-28T04:05:27.978Z,17.23
2019-02-28T04:06:03.876Z,16.47
2019-02-28T04:06:41.000Z,17.30
2019-02-28T04:07:17.076Z,17.30
2019-02-28T04:07:54.758Z,17.07
2019-02-28T04:08:30.735Z,16.70
2019-02-28T04:09:08.471Z,16.43
2019-02-28T04:09:45.362Z,17.87
2019-02-28T04:10:22.441Z,17.47
2019-02-28T04:10:58.482Z,16.87
2019-02-28T04:11:34.149Z,16.47
2019-02-28T04:12:09.567Z,17.90
2019-02-28T04:12:46.900Z,16.93
2019-02-28T04:13:22.520Z,16.43
2019-02-28T04:13:57.926Z,16.07
2019-02-28T04:14:34.387Z,16.13
2019-02-28T04:15:11.430Z,17.30
2019-02-28T04:16:07.780Z,17.43
2019-02-28T04:16:24.443Z,17.73
2019-02-28T04:17:00.130Z,16.17
2019-02-28T04:17:35.517Z,16.57
2019-02-28T04:18:10.910Z,17.13
2019-02-28T04:18:46.859Z,16.57
2019-02-28T04:19:23.046Z,17.30
2019-02-28T04:20:00.647Z,17.13
2019-02-28T04:20:37.867Z,16.57
2019-02-28T04:21:13.370Z,16.83
2019-02-28T04:21:48.772Z,17.30
2019-02-28T04:22:24.174Z,17.30
2019-02-28T04:23:00.322Z,16.03
2019-02-28T04:23:36.934Z,16.03
2019-02-28T04:24:13.821Z,17.17
2019-02-28T04:24:49.572Z,17.90
2019-02-28T04:25:25.205Z,16.77
2019-02-28T04:26:00.680Z,16.50
2019-02-28T04:26:36.053Z,17.83
2019-02-28T04:27:11.464Z,17.57
2019-02-28T04:27:46.846Z,16.90
2019-02-28T04:28:22.258Z,17.67
2019-02-28T04:29:00.503Z,17.17
2019-02-28T04:29:36.678Z,16.90
2019-02-28T04:30:12.579Z,17.93
2019-02-28T04:30:49.326Z,17.77
2019-02-28T04:31:25.063Z,17.23
2019-02-28T04:32:00.821Z,17.27
2019-02-28T04:32:36.478Z,16.00
2019-02-28T04:33:11.871Z,17.07
2019-02-28T04:33:47.365Z,17.97
2019-02-28T04:34:23.286Z,16.33
2019-02-28T04:34:58.726Z,17.20
2019-02-28T04:35:34.113Z,17.50
2019-02-28T04:36:09.516Z,17.33
2019-02-28T04:36:44.919Z,16.83
2019-02-28T04:37:20.307Z,17.97
2019-02-28T04:37:55.986Z,17.07
2019-02-28T04:38:31.391Z,17.60
2019-02-28T04:39:07.415Z,16.13
2019-02-28T04:39:42.800Z,17.53
2019-02-28T04:40:18.252Z,17.57
2019-02-28T04:40:53.627Z,17.00
2019-02-28T04:41:32.400Z,16.90
2019-02-28T04:42:06.431Z,17.07
2019-02-28T04:42:41.839Z,16.90
2019-02-28T04:43:17.566Z,17.23
2019-02-28T04:43:52.992Z,17.43
2019-02-28T04:44:28.638Z,17.07
2019-02-28T04:45:04.483Z,16.43
2019-02-28T04:45:39.906Z,17.83
2019-02-28T04:46:15.303Z,18.23
2019-02-28T04:46:50.704Z,16.37
2019-02-28T04:47:26.405Z,16.67
2019-02-28T04:48:01.821Z,17.70
2019-02-28T04:48:37.201Z,16.20
2019-02-28T04:49:12.626Z,17.70
2019-02-28T04:49:48.036Z,16.70
2019-02-28T04:50:24.360Z,16.87
2019-02-28T04:51:02.255Z,17.80
2019-02-28T04:51:37.113Z,16.87
2019-02-28T04:52:14.002Z,16.20
2019-02-28T04:52:49.917Z,17.57
2019-02-28T04:53:25.413Z,16.50
2019-02-28T04:54:00.827Z,17.67
2019-02-28T04:54:36.256Z,16.93
2019-02-28T04:55:11.776Z,16.80
2019-02-28T04:55:47.189Z,17.27
2019-02-28T04:56:22.583Z,17.37
2019-02-28T04:56:57.981Z,16.70
2019-02-28T04:57:33.638Z,16.93
2019-02-28T04:58:09.283Z,17.63
2019-02-28T04:58:44.682Z,17.40
2019-02-28T04:59:20.647Z,16.53
2019-02-28T04:59:56.053Z,18.20
2019-02-28T05:00:31.494Z,18.90
2019-02-28T05:01:09.209Z,16.47
2019-02-28T05:01:46.174Z,16.90
2019-02-28T05:02:21.392Z,17.07
2019-02-28T05:02:56.792Z,17.10
2019-02-28T05:03:32.243Z,15.80
2019-02-28T05:04:07.896Z,16.43
2019-02-28T05:04:43.325Z,17.10
2019-02-28T05:05:19.022Z,16.43
2019-02-28T05:05:54.441Z,16.70
2019-02-28T05:06:30.371Z,16.87
2019-02-28T05:07:06.129Z,17.57
2019-02-28T05:07:42.129Z,16.67
2019-02-28T05:08:17.571Z,17.60
2019-02-28T05:08:52.973Z,16.47
2019-02-28T05:09:28.408Z,17.33
2019-02-28T05:10:03.823Z,16.33
2019-02-28T05:10:39.332Z,17.30
2019-02-28T05:11:14.738Z,15.73
2019-02-28T05:11:50.396Z,16.63
2019-02-28T05:12:25.825Z,16.60
2019-02-28T05:13:01.523Z,16.23
2019-02-28T05:13:36.968Z,15.47
2019-02-28T05:14:12.370Z,16.93
2019-02-28T05:14:48.104Z,16.97
2019-02-28T05:15:23.494Z,16.27
2019-02-28T05:15:59.226Z,17.47
2019-02-28T05:16:34.647Z,17.07
2019-02-28T05:17:10.061Z,16.90
2019-02-28T05:17:45.713Z,17.63
2019-02-28T05:18:21.540Z,16.93
2019-02-28T05:18:58.286Z,16.47
2019-02-28T05:19:35.724Z,17.47
2019-02-28T05:20:12.292Z,15.77
2019-02-28T05:20:47.941Z,17.03
2019-02-28T05:21:23.362Z,17.37
2019-02-28T05:21:58.771Z,16.27
2019-02-28T05:22:34.285Z,16.53
2019-02-28T05:23:09.691Z,15.90
2019-02-28T05:23:45.081Z,16.73
2019-02-28T05:24:20.473Z,17.03
2019-02-28T05:24:55.889Z,17.23
2019-02-28T05:25:31.293Z,15.37
2019-02-28T05:26:06.713Z,16.90
2019-02-28T05:26:42.094Z,16.60
2019-02-28T05:27:17.492Z,17.20
2019-02-28T05:27:52.877Z,16.77
2019-02-28T05:28:28.306Z,17.40
2019-02-28T05:29:03.718Z,16.87
2019-02-28T05:29:39.375Z,16.63
2019-02-28T05:30:18.140Z,14.93
2019-02-28T05:30:53.732Z,17.53
2019-02-28T05:31:29.213Z,16.53
2019-02-28T05:32:04.872Z,15.73
2019-02-28T05:32:40.539Z,16.27
2019-02-28T05:33:16.278Z,17.53
2019-02-28T05:33:51.685Z,16.57
2019-02-28T05:34:27.351Z,17.70
2019-02-28T05:35:02.773Z,17.27
2019-02-28T05:35:38.222Z,16.60
2019-02-28T05:36:13.602Z,16.80
2019-02-28T05:36:49.252Z,16.33
2019-02-28T05:37:24.925Z,16.23
2019-02-28T05:38:00.440Z,16.33
2019-02-28T05:38:36.070Z,16.33
2019-02-28T05:39:11.502Z,17.20
2019-02-28T05:39:47.229Z,17.00
2019-02-28T05:40:22.645Z,17.60
2019-02-28T05:40:58.378Z,16.37
2019-02-28T05:41:36.174Z,16.60
2019-02-28T05:42:11.224Z,17.70
2019-02-28T05:42:46.865Z,16.57
2019-02-28T05:43:22.272Z,17.23
2019-02-28T05:43:57.688Z,16.83
2019-02-28T05:44:33.377Z,16.13
2019-02-28T05:45:11.306Z,17.17
2019-02-28T05:45:49.577Z,16.67
2019-02-28T05:46:24.594Z,17.33
2019-02-28T05:47:00.082Z,16.43
2019-02-28T05:47:45.816Z,17.07
2019-02-28T05:48:12.599Z,17.33
2019-02-28T05:48:47.989Z,15.90
2019-02-28T05:49:23.381Z,17.07
2019-02-28T05:49:59.118Z,16.60
2019-02-28T05:50:34.534Z,17.03
2019-02-28T05:51:10.058Z,16.87
2019-02-28T05:51:46.625Z,17.90
2019-02-28T05:52:22.061Z,16.30
2019-02-28T05:52:57.549Z,15.80
2019-02-28T05:53:33.007Z,16.80
2019-02-28T05:54:08.739Z,16.27
2019-02-28T05:54:44.145Z,16.10
2019-02-28T05:55:24.621Z,16.30
2019-02-28T05:55:59.710Z,16.27
2019-02-28T05:56:34.075Z,17.07
2019-02-28T05:57:09.589Z,16.37
2019-02-28T05:57:45.059Z,16.63
2019-02-28T05:58:20.962Z,17.97
2019-02-28T05:58:56.355Z,17.37
2019-02-28T05:59:31.773Z,16.13
2019-02-28T06:00:07.888Z,16.53
2019-02-28T06:00:43.560Z,16.80
2019-02-28T06:01:18.989Z,17.40
2019-02-28T06:01:54.659Z,16.30
2019-02-28T06:02:30.189Z,17.00
2019-02-28T06:03:05.597Z,16.83
2019-02-28T06:03:41.011Z,17.03
2019-02-28T06:04:16.990Z,16.50
2019-02-28T06:04:52.514Z,16.53
2019-02-28T06:05:28.005Z,15.83
2019-02-28T06:06:03.753Z,17.50
2019-02-28T06:06:39.164Z,16.70
2019-02-28T06:07:14.569Z,17.37
2019-02-28T06:07:50.029Z,16.53
2019-02-28T06:08:25.469Z,16.37
2019-02-28T06:09:01.363Z,17.33
2019-02-28T06:09:37.051Z,16.93
2019-02-28T06:10:12.448Z,16.37
2019-02-28T06:10:47.849Z,17.23
2019-02-28T06:11:23.532Z,17.10
2019-02-28T06:11:59.271Z,16.17
2019-02-28T06:12:34.957Z,17.20
2019-02-28T06:13:10.379Z,16.87
2019-02-28T06:13:45.761Z,16.40
2019-02-28T06:14:26.692Z,16.80
2019-02-28T06:15:02.196Z,16.77
2019-02-28T06:15:37.127Z,14.90
2019-02-28T06:16:13.051Z,15.93
2019-02-28T06:16:48.478Z,16.93
2019-02-28T06:17:24.141Z,17.13
2019-02-28T06:17:59.601Z,17.63
2019-02-28T06:18:34.994Z,16.47
2019-02-28T06:19:10.383Z,16.93
2019-02-28T06:19:49.321Z,17.70
2019-02-28T06:20:25.017Z,16.90
2019-02-28T06:21:00.753Z,17.53
2019-02-28T06:21:36.476Z,17.10
2019-02-28T06:22:11.887Z,17.53
2019-02-28T06:22:47.594Z,17.37
2019-02-28T06:23:23.243Z,15.97
2019-02-28T06:23:58.947Z,16.53
2019-02-28T06:24:34.670Z,17.17
2019-02-28T06:25:10.369Z,16.80
2019-02-28T06:25:45.792Z,17.37
2019-02-28T06:26:21.213Z,16.00
2019-02-28T06:26:57.045Z,17.23
2019-02-28T06:27:41.240Z,16.83
2019-02-28T06:28:09.496Z,17.03
2019-02-28T06:28:44.909Z,17.50
2019-02-28T06:29:20.304Z,16.40
2019-02-28T06:29:55.717Z,16.33
2019-02-28T06:30:31.461Z,16.43
2019-02-28T06:31:07.165Z,14.93
2019-02-28T06:31:45.516Z,17.33
2019-02-28T06:32:23.284Z,17.03
2019-02-28T06:32:59.072Z,17.60
2019-02-28T06:33:34.434Z,16.13
2019-02-28T06:34:10.160Z,16.00
2019-02-28T06:34:45.549Z,16.77
2019-02-28T06:35:21.208Z,17.10
2019-02-28T06:35:56.919Z,18.37
2019-02-28T06:36:32.595Z,16.47
2019-02-28T06:37:08.248Z,16.77
2019-02-28T06:37:43.656Z,17.50
2019-02-28T06:38:19.915Z,16.33
2019-02-28T06:38:55.551Z,16.57
2019-02-28T06:39:31.553Z,16.97
2019-02-28T06:40:08.380Z,16.83
2019-02-28T06:40:43.807Z,17.90
2019-02-28T06:41:19.497Z,16.87
2019-02-28T06:41:55.003Z,17.70
2019-02-28T06:42:30.693Z,17.10
2019-02-28T06:43:06.352Z,17.00
2019-02-28T06:43:44.245Z,16.63
2019-02-28T06:44:19.181Z,16.20
2019-02-28T06:44:54.668Z,16.77
2019-02-28T06:45:30.091Z,17.37
2019-02-28T06:46:08.547Z,17.80
2019-02-28T06:46:43.438Z,16.23
2019-02-28T06:47:18.963Z,17.50
2019-02-28T06:47:54.632Z,17.33
2019-02-28T06:48:30.172Z,16.90
2019-02-28T06:49:07.151Z,17.97
2019-02-28T06:49:42.562Z,17.43
2019-02-28T06:50:18.821Z,16.80
2019-02-28T06:50:54.213Z,17.30
2019-02-28T06:51:29.946Z,17.13
2019-02-28T06:52:05.656Z,16.43
2019-02-28T06:52:41.441Z,17.87
2019-02-28T06:53:16.856Z,17.37
2019-02-28T06:53:52.648Z,16.50
2019-02-28T06:54:28.078Z,15.87
2019-02-28T06:55:04.445Z,17.90
2019-02-28T06:55:47.676Z,17.77
2019-02-28T06:56:23.219Z,16.50
2019-02-28T06:56:58.789Z,16.13
2019-02-28T06:57:34.281Z,17.27
2019-02-28T06:58:09.746Z,16.13
2019-02-28T06:58:45.109Z,17.50
2019-02-28T06:59:20.845Z,18.07
2019-02-28T06:59:56.274Z,16.33
2019-02-28T07:00:31.675Z,18.63
2019-02-28T07:01:07.334Z,16.57
2019-02-28T07:01:42.755Z,17.17
2019-02-28T07:02:18.421Z,17.23
2019-02-28T07:02:54.189Z,17.53
2019-02-28T07:03:29.612Z,16.50
2019-02-28T07:04:05.301Z,16.87
2019-02-28T07:04:40.693Z,16.67
2019-02-28T07:05:16.091Z,16.40
2019-02-28T07:05:51.606Z,17.27
2019-02-28T07:06:27.350Z,16.60
2019-02-28T07:07:02.785Z,16.57
2019-02-28T07:07:38.204Z,16.37
2019-02-28T07:08:13.927Z,16.80
2019-02-28T07:08:49.405Z,17.17
2019-02-28T07:09:25.362Z,18.47
2019-02-28T07:10:01.935Z,16.37
2019-02-28T07:10:37.868Z,17.53
2019-02-28T07:11:13.360Z,17.17
2019-02-28T07:11:51.283Z,16.83
2019-02-28T07:12:29.543Z,17.70
2019-02-28T07:13:04.635Z,17.80
2019-02-28T07:13:40.470Z,17.80
2019-02-28T07:14:15.876Z,16.57
2019-02-28T07:14:51.366Z,17.10
2019-02-28T07:15:26.790Z,16.97
2019-02-28T07:16:04.303Z,18.67
2019-02-28T07:16:40.122Z,16.97
2019-02-28T07:17:15.627Z,17.10
2019-02-28T07:17:51.288Z,17.00
2019-02-28T07:18:26.767Z,16.80
2019-02-28T07:19:02.199Z,17.30
2019-02-28T07:19:37.641Z,17.13
2019-02-28T07:20:13.847Z,17.63
2019-02-28T07:20:49.526Z,18.03
2019-02-28T07:21:25.198Z,17.80
2019-02-28T07:22:00.665Z,17.73
2019-02-28T07:22:36.028Z,18.17
2019-02-28T07:23:11.424Z,16.97
2019-02-28T07:23:46.829Z,17.50
2019-02-28T07:24:22.236Z,17.27
2019-02-28T07:24:57.940Z,17.10
2019-02-28T07:25:33.446Z,16.97
2019-02-28T07:26:08.858Z,18.90
2019-02-28T07:26:44.558Z,17.17
2019-02-28T07:27:19.995Z,17.13
2019-02-28T07:27:55.425Z,17.90
2019-02-28T07:28:36.196Z,17.93
2019-02-28T07:29:11.156Z,17.97
2019-02-28T07:29:45.062Z,18.20
2019-02-28T07:30:20.735Z,17.10
2019-02-28T07:30:56.228Z,18.27
2019-02-28T07:31:32.086Z,17.57
2019-02-28T07:32:07.667Z,17.53
2019-02-28T07:32:43.101Z,17.67
2019-02-28T07:33:18.853Z,17.03
2019-02-28T07:33:54.593Z,18.40
2019-02-28T07:34:30.254Z,17.43
2019-02-28T07:35:06.212Z,17.80
2019-02-28T07:35:41.942Z,17.13
2019-02-28T07:36:17.360Z,17.57
2019-02-28T07:36:53.409Z,17.83
2019-02-28T07:37:28.929Z,17.60
2019-02-28T07:38:04.345Z,16.63
2019-02-28T07:38:39.736Z,18.57
2019-02-28T07:39:15.154Z,17.57
2019-02-28T07:39:50.632Z,19.37
2019-02-28T07:40:26.119Z,17.20
2019-02-28T07:41:01.797Z,17.97
2019-02-28T07:41:37.244Z,16.73
2019-02-28T07:42:12.900Z,16.73